SLLP/LPB METAR and TAF weather

Enter ICAO airport designator
Station Type Date Time Source
SLLP METAR 2020/06/01 16:00 UTC NOAA

SLLP 011600Z 28012KT 240V310 9999 FEW023 BKN200 12/M05 Q1039


Station Type Date Time Source
SLLP Decoded METAR 2020/06/01 16:00 UTC NOAA

La Paz / Alto, Bolivia (SLLP) 16-31S 068-11W 4038M
Jun 01, 2020 - 12:00 PM EDT / 2020.06.01 1600 UTC
Wind: from the W (280 degrees) at 14 MPH (12 KT) (direction variable):0
Visibility: greater than 7 mile(s):0
Sky conditions: mostly cloudy
Temperature: 53 F (12 C)
Dew Point: 23 F (-5 C)
Relative Humidity: 30%
Pressure (altimeter): 30.68 in. Hg (1039 hPa)
ob: SLLP 011600Z 28012KT 240V310 9999 FEW023 BKN200 12/M05 Q1039
cycle: 16

Station Type Date Time Source
SLLP TAF 2020/06/01 12:30 UTC NOAA

TAF COR TAF COR SLLP 011000Z 0112/0212 29008KT 9999 FEW017 TX17/0120Z TNM04/ 0210Z
TEMPO 0118/0122 34014G25KT FEW020 FEW023CB
BECMG 0123/0202 07005KT SCT012

Example: see airport list